createdAt,value
2018-06-21T00:01:55.234Z,90.00
2018-06-21T00:04:23.547Z,90.10
2018-06-21T00:06:51.837Z,90.20
2018-06-21T00:09:20.147Z,90.30
2018-06-21T00:11:48.435Z,90.30
2018-06-21T00:14:16.741Z,90.40
2018-06-21T00:16:45.035Z,90.50
2018-06-21T00:19:12.583Z,90.50
2018-06-21T00:21:40.872Z,90.50
2018-06-21T00:24:08.425Z,90.50
2018-06-21T00:26:36.722Z,90.60
2018-06-21T00:29:05.022Z,90.70
2018-06-21T00:31:33.319Z,90.60
2018-06-21T00:34:01.635Z,90.70
2018-06-21T00:36:29.928Z,90.80
2018-06-21T00:38:58.235Z,90.90
2018-06-21T00:41:26.525Z,90.90
2018-06-21T00:43:54.835Z,90.90
2018-06-21T00:46:23.128Z,90.90
2018-06-21T00:48:51.442Z,91.00
2018-06-21T00:51:19.731Z,91.00
2018-06-21T00:53:48.040Z,91.00
2018-06-21T00:56:15.555Z,90.90
2018-06-21T00:58:43.878Z,91.00
2018-06-21T01:01:12.172Z,91.10
2018-06-21T01:03:40.493Z,91.00
2018-06-21T01:06:08.782Z,91.00
2018-06-21T01:08:37.058Z,90.90
2018-06-21T01:11:05.373Z,91.00
2018-06-21T01:13:32.893Z,91.00
2018-06-21T01:16:01.202Z,91.20
2018-06-21T01:18:29.491Z,91.50
2018-06-21T01:20:57.799Z,91.40
2018-06-21T01:23:26.080Z,91.50
2018-06-21T01:25:53.621Z,91.40
2018-06-21T01:28:21.138Z,91.40
2018-06-21T01:33:22.515Z,91.90
2018-06-21T01:35:50.831Z,91.90
2018-06-21T01:38:19.127Z,91.90
2018-06-21T01:40:47.438Z,91.90
2018-06-21T01:43:15.725Z,91.90
2018-06-21T01:45:43.273Z,91.90
2018-06-21T01:48:11.571Z,92.20
2018-06-21T01:50:39.875Z,92.40
2018-06-21T01:53:07.394Z,92.30
2018-06-21T01:55:35.707Z,92.40
2018-06-21T01:58:03.227Z,92.40
2018-06-21T02:00:31.539Z,92.20
2018-06-21T02:02:59.826Z,92.50
2018-06-21T02:05:28.161Z,92.70
2018-06-21T02:07:55.720Z,92.60
2018-06-21T02:10:24.024Z,92.90
2018-06-21T02:12:51.539Z,92.90
2018-06-21T02:15:19.080Z,93.00
2018-06-21T02:17:47.372Z,93.00
2018-06-21T02:20:15.685Z,93.00
2018-06-21T02:22:43.991Z,93.10
2018-06-21T02:25:11.538Z,93.10
2018-06-21T02:27:39.842Z,93.00
2018-06-21T02:30:08.152Z,92.90
2018-06-21T02:32:35.678Z,92.90
2018-06-21T02:35:03.990Z,93.00
2018-06-21T02:37:32.283Z,93.20
2018-06-21T02:40:00.594Z,93.30
2018-06-21T02:42:28.884Z,93.40
2018-06-21T02:44:56.431Z,93.40
2018-06-21T02:47:24.731Z,93.40
2018-06-21T02:49:52.269Z,93.40
2018-06-21T02:52:20.553Z,93.50
2018-06-21T02:54:48.870Z,93.50
2018-06-21T02:57:16.386Z,93.50
2018-06-21T02:59:43.908Z,93.40
2018-06-21T03:02:12.225Z,93.60
2018-06-21T03:04:40.514Z,93.60
2018-06-21T03:07:08.832Z,93.50
2018-06-21T03:09:36.370Z,93.50
2018-06-21T03:12:04.682Z,93.70
2018-06-21T03:14:32.970Z,93.80
2018-06-21T03:17:00.532Z,93.70
2018-06-21T03:19:28.830Z,93.70
2018-06-21T03:21:57.178Z,93.70
2018-06-21T03:24:25.442Z,93.90
2018-06-21T03:26:52.990Z,93.80
2018-06-21T03:29:21.272Z,93.80
2018-06-21T03:31:49.612Z,93.80
2018-06-21T03:34:17.915Z,93.80
2018-06-21T03:36:46.230Z,93.70
2018-06-21T03:39:14.527Z,93.60
2018-06-21T03:41:42.834Z,93.60
2018-06-21T03:44:10.358Z,93.60
2018-06-21T03:46:38.662Z,93.50
2018-06-21T03:49:06.183Z,93.40
2018-06-21T03:51:34.494Z,93.30
2018-06-21T03:54:02.022Z,93.30
2018-06-21T03:56:30.330Z,93.30
2018-06-21T03:58:58.631Z,93.30
2018-06-21T04:01:26.943Z,93.40
2018-06-21T04:03:54.471Z,93.30
2018-06-21T04:06:22.018Z,93.60
2018-06-21T04:08:50.310Z,89.10
2018-06-21T04:11:18.619Z,84.60
2018-06-21T04:13:46.902Z,80.50
2018-06-21T04:16:15.210Z,76.70
2018-06-21T04:18:43.505Z,72.90
2018-06-21T04:21:11.819Z,69.70
2018-06-21T04:23:39.348Z,69.60
2018-06-21T04:26:06.887Z,68.40
2018-06-21T04:28:35.185Z,69.00
2018-06-21T04:31:03.492Z,69.30
2018-06-21T04:33:31.021Z,69.30
2018-06-21T04:35:58.566Z,70.00
2018-06-21T04:38:26.089Z,70.00
2018-06-21T04:40:54.393Z,69.60
2018-06-21T04:43:22.685Z,68.80
2018-06-21T04:45:51.005Z,68.10
2018-06-21T04:48:18.528Z,68.10
2018-06-21T04:50:46.826Z,67.70
2018-06-21T04:53:15.162Z,68.10
2018-06-21T04:55:42.690Z,68.10
2018-06-21T04:58:11.007Z,67.10
2018-06-21T05:00:39.286Z,66.00
2018-06-21T05:03:07.602Z,64.40
2018-06-21T05:05:35.893Z,64.30
2018-06-21T05:08:04.206Z,65.00
2018-06-21T05:10:32.494Z,65.80
2018-06-21T05:13:00.036Z,65.70
2018-06-21T05:15:28.330Z,67.00
2018-06-21T05:17:56.640Z,68.10
2018-06-21T05:20:24.927Z,69.40
2018-06-21T05:22:52.475Z,69.30
2018-06-21T05:25:19.993Z,70.80
2018-06-21T05:27:47.540Z,72.10
2018-06-21T05:30:15.828Z,73.20
2018-06-21T05:32:44.134Z,73.50
2018-06-21T05:35:12.426Z,73.80
2018-06-21T05:37:40.745Z,73.50
2018-06-21T05:40:09.030Z,73.20
2018-06-21T05:42:37.343Z,72.30
2018-06-21T05:45:05.631Z,71.30
2018-06-21T05:47:33.938Z,70.50
2018-06-21T05:50:02.230Z,70.10
2018-06-21T05:52:30.543Z,69.60
2018-06-21T05:54:58.070Z,69.60
2018-06-21T05:57:26.387Z,70.30
2018-06-21T05:59:54.682Z,70.20
2018-06-21T06:02:22.989Z,69.30
2018-06-21T06:04:51.269Z,69.70
2018-06-21T06:07:18.816Z,69.70
2018-06-21T06:09:47.120Z,70.80
2018-06-21T06:12:15.423Z,71.10
2018-06-21T06:14:42.950Z,71.20
2018-06-21T06:17:10.491Z,70.00
2018-06-21T06:19:38.015Z,69.30
2018-06-21T06:22:06.350Z,69.60
2018-06-21T06:24:33.878Z,69.60
2018-06-21T06:27:01.427Z,70.80
2018-06-21T06:29:28.956Z,72.00
2018-06-21T06:31:57.271Z,73.60
2018-06-21T06:34:24.797Z,73.50
2018-06-21T06:36:52.359Z,73.50
2018-06-21T06:39:20.654Z,73.00
2018-06-21T06:41:48.938Z,73.20
2018-06-21T06:44:16.491Z,74.00
2018-06-21T06:46:44.028Z,73.70
2018-06-21T06:49:11.678Z,74.90
2018-06-21T06:51:39.974Z,77.30
2018-06-21T06:54:08.287Z,78.20
2018-06-21T06:56:35.819Z,78.30
2018-06-21T06:59:03.374Z,79.30
2018-06-21T07:01:31.666Z,79.70
2018-06-21T07:03:59.993Z,80.30
2018-06-21T07:06:27.525Z,80.30
2018-06-21T07:08:55.835Z,79.80
2018-06-21T07:11:24.182Z,80.00
2018-06-21T07:13:51.723Z,80.00
2018-06-21T07:16:20.018Z,80.50
2018-06-21T07:18:48.318Z,80.80
2018-06-21T07:21:16.599Z,80.20
2018-06-21T07:23:44.142Z,80.20
2018-06-21T07:26:12.428Z,80.60
2018-06-21T07:28:40.733Z,81.10
2018-06-21T07:31:09.045Z,82.00
2018-06-21T07:33:37.381Z,82.20
2018-06-21T07:36:05.652Z,82.30
2018-06-21T07:38:33.211Z,82.30
2018-06-21T07:41:01.510Z,82.40
2018-06-21T07:43:29.049Z,82.40
2018-06-21T07:45:56.569Z,82.80
2018-06-21T07:48:24.874Z,83.50
2018-06-21T07:50:53.166Z,83.40
2018-06-21T07:53:21.478Z,83.50
2018-06-21T07:55:48.993Z,83.50
2018-06-21T07:58:16.540Z,82.60
2018-06-21T08:00:44.822Z,82.20
2018-06-21T08:03:13.129Z,82.70
2018-06-21T08:05:41.418Z,82.90
2018-06-21T08:08:08.965Z,82.90
2018-06-21T08:10:37.258Z,83.30
2018-06-21T08:13:05.570Z,83.00
2018-06-21T08:15:33.855Z,83.30
2018-06-21T08:18:02.159Z,82.90
2018-06-21T08:20:30.451Z,82.80
2018-06-21T08:22:57.996Z,82.80
2018-06-21T08:25:25.518Z,81.60
2018-06-21T08:27:53.843Z,78.80
2018-06-21T08:30:22.162Z,77.70
2018-06-21T08:32:50.460Z,76.40
2018-06-21T08:35:18.778Z,74.70
2018-06-21T08:37:47.063Z,73.00
2018-06-21T08:40:15.379Z,72.70
2018-06-21T08:42:43.685Z,71.50
2018-06-21T08:45:11.234Z,71.50
2018-06-21T08:47:38.757Z,70.50
2018-06-21T08:50:07.079Z,66.80
2018-06-21T08:52:35.366Z,66.10
2018-06-21T08:55:03.678Z,65.90
2018-06-21T08:57:31.211Z,65.90
2018-06-21T08:59:59.842Z,65.80
2018-06-21T09:02:28.129Z,67.20
2018-06-21T09:04:55.670Z,67.30
2018-06-21T09:07:23.966Z,66.50
2018-06-21T09:09:51.515Z,66.50
2018-06-21T09:12:19.802Z,63.70
2018-06-21T09:14:48.136Z,62.20
2018-06-21T09:17:16.432Z,60.40
2018-06-21T09:19:44.744Z,59.90
2018-06-21T09:22:13.034Z,58.90
2018-06-21T09:24:40.590Z,58.90
2018-06-21T09:27:08.110Z,59.10
2018-06-21T09:29:36.413Z,58.10
2018-06-21T09:32:04.702Z,57.70
2018-06-21T09:34:33.012Z,56.90
2018-06-21T09:37:00.534Z,56.90
2018-06-21T09:39:43.869Z,56.90
2018-06-21T09:42:29.897Z,55.00
2018-06-21T09:44:58.218Z,53.90
2018-06-21T09:47:40.624Z,53.80
2018-06-21T09:50:08.934Z,54.40
2018-06-21T09:52:37.282Z,54.20
2018-06-21T09:55:05.550Z,54.20
2018-06-21T09:57:33.833Z,53.90
2018-06-21T10:00:02.151Z,53.40
2018-06-21T10:02:29.829Z,53.40
2018-06-21T10:04:57.375Z,53.60
2018-06-21T10:07:24.893Z,53.40
2018-06-21T10:09:53.205Z,52.90
2018-06-21T10:12:21.491Z,52.30
2018-06-21T10:14:49.802Z,52.10
2018-06-21T10:17:18.089Z,52.30
2018-06-21T10:19:45.667Z,52.30
2018-06-21T10:22:13.946Z,52.90
2018-06-21T10:24:42.257Z,53.00
2018-06-21T10:27:10.540Z,53.10
2018-06-21T10:29:38.085Z,53.10
2018-06-21T10:32:06.365Z,52.00
2018-06-21T10:34:34.693Z,52.30
2018-06-21T10:37:02.993Z,51.80
2018-06-21T10:39:30.553Z,51.80
2018-06-21T10:41:58.855Z,51.10
2018-06-21T10:44:26.410Z,51.10
2018-06-21T10:46:54.693Z,52.30
2018-06-21T10:49:22.238Z,52.30
2018-06-21T10:51:50.538Z,49.10
2018-06-21T10:54:18.111Z,49.00
2018-06-21T10:56:46.399Z,48.50
2018-06-21T10:59:14.691Z,48.10
2018-06-21T11:01:42.998Z,46.90
2018-06-21T11:04:11.289Z,47.60
2018-06-21T11:06:39.605Z,46.80
2018-06-21T11:09:07.895Z,45.70
2018-06-21T11:11:36.206Z,45.10
2018-06-21T11:14:03.737Z,45.00
2018-06-21T11:16:31.317Z,44.50
2018-06-21T11:18:58.837Z,43.30
2018-06-21T11:21:27.220Z,42.10
2018-06-21T11:23:54.742Z,42.10
2018-06-21T11:26:23.050Z,42.50
2018-06-21T11:28:50.684Z,42.50
2018-06-21T11:31:19.017Z,42.40
2018-06-21T11:33:47.313Z,42.10
2018-06-21T11:36:15.631Z,43.30
2018-06-21T11:38:43.916Z,41.70
2018-06-21T11:41:12.229Z,41.20
2018-06-21T11:43:40.519Z,41.00
2018-06-21T11:46:08.842Z,40.30
2018-06-21T11:48:37.135Z,39.60
2018-06-21T11:51:05.443Z,38.80
2018-06-21T11:53:33.734Z,39.30
2018-06-21T11:56:01.275Z,39.30
2018-06-21T11:58:29.563Z,37.80
2018-06-21T12:00:57.876Z,36.90
2018-06-21T12:03:26.219Z,38.00
2018-06-21T12:05:53.738Z,38.00
2018-06-21T12:08:22.031Z,35.60
2018-06-21T12:10:50.342Z,35.00
2018-06-21T12:13:18.640Z,34.40
2018-06-21T12:15:46.945Z,34.10
2018-06-21T12:18:15.282Z,33.60
2018-06-21T12:20:43.604Z,34.50
2018-06-21T12:23:11.895Z,35.00
2018-06-21T12:25:40.202Z,34.60
2018-06-21T12:28:07.724Z,34.50
2018-06-21T12:30:36.023Z,34.40
2018-06-21T12:33:04.310Z,35.00
2018-06-21T12:35:31.844Z,35.00
2018-06-21T12:38:00.191Z,35.00
2018-06-21T12:40:28.446Z,34.40
2018-06-21T12:42:56.740Z,35.10
2018-06-21T12:45:25.043Z,35.00
2018-06-21T12:47:52.569Z,35.10
2018-06-21T12:50:20.892Z,35.50
2018-06-21T12:52:48.452Z,35.50
2018-06-21T12:55:15.992Z,34.70
2018-06-21T12:57:43.529Z,33.70
2018-06-21T13:00:11.815Z,33.50
2018-06-21T13:02:39.360Z,33.40
2018-06-21T13:05:07.653Z,33.30
2018-06-21T13:07:35.199Z,33.30
2018-06-21T13:10:15.214Z,32.00
2018-06-21T13:12:55.314Z,30.60
2018-06-21T13:15:22.894Z,30.60
2018-06-21T13:17:51.173Z,31.10
2018-06-21T13:20:19.464Z,31.20
2018-06-21T13:22:47.006Z,31.20
2018-06-21T13:25:15.298Z,30.40
2018-06-21T13:27:43.631Z,31.80
2018-06-21T13:30:11.924Z,32.10
2018-06-21T13:32:39.466Z,32.10
2018-06-21T13:35:06.997Z,32.60
2018-06-21T13:37:35.311Z,31.70
2018-06-21T13:40:03.610Z,31.70
2018-06-21T13:42:31.160Z,31.70
2018-06-21T13:44:58.678Z,31.30
2018-06-21T13:47:26.987Z,30.00
2018-06-21T13:49:55.276Z,30.70
2018-06-21T13:52:23.577Z,31.20
2018-06-21T13:54:51.096Z,31.20
2018-06-21T13:57:19.398Z,30.80
2018-06-21T13:59:46.932Z,30.80
2018-06-21T14:02:15.239Z,31.40
2018-06-21T14:04:42.765Z,32.00
2018-06-21T14:07:10.298Z,31.90
2018-06-21T14:09:38.581Z,33.00
2018-06-21T14:12:06.882Z,33.80
2018-06-21T14:14:34.395Z,33.80
2018-06-21T14:17:01.935Z,34.20
2018-06-21T14:19:30.228Z,32.70
2018-06-21T14:21:58.543Z,34.70
2018-06-21T14:24:26.066Z,34.70
2018-06-21T14:26:54.375Z,34.80
2018-06-21T14:29:22.657Z,34.60
2018-06-21T14:31:50.967Z,35.00
2018-06-21T14:34:19.271Z,35.00
2018-06-21T14:36:47.583Z,34.80
2018-06-21T14:39:15.871Z,33.60
2018-06-21T14:41:44.177Z,34.30
2018-06-21T14:44:12.494Z,32.10
2018-06-21T14:46:40.031Z,32.10
2018-06-21T14:49:07.560Z,32.20
2018-06-21T14:51:35.887Z,33.10
2018-06-21T14:54:04.180Z,33.10
2018-06-21T14:56:32.470Z,33.50
2018-06-21T14:59:00.794Z,33.60
2018-06-21T15:01:29.862Z,34.00
2018-06-21T15:03:58.171Z,34.80
2018-06-21T15:06:25.694Z,34.80
2018-06-21T15:08:53.331Z,32.50
2018-06-21T15:11:21.612Z,31.90
2018-06-21T15:13:49.909Z,32.90
2018-06-21T15:16:18.203Z,32.50
2018-06-21T15:18:45.754Z,32.50
2018-06-21T15:21:14.043Z,32.30
2018-06-21T15:23:41.584Z,32.30
2018-06-21T15:26:09.114Z,33.00
2018-06-21T15:28:37.417Z,33.70
2018-06-21T15:31:05.709Z,33.60
2018-06-21T15:33:34.018Z,32.80
2018-06-21T15:36:01.542Z,32.70
2018-06-21T15:38:29.855Z,33.30
2018-06-21T15:40:58.146Z,34.00
2018-06-21T15:43:26.455Z,34.50
2018-06-21T15:45:54.738Z,33.90
2018-06-21T15:48:23.038Z,34.00
2018-06-21T15:50:51.331Z,34.50
2018-06-21T15:53:18.866Z,33.90
2018-06-21T15:55:47.158Z,31.80
2018-06-21T15:58:15.462Z,31.20
2018-06-21T16:00:43.759Z,32.70
2018-06-21T16:03:12.116Z,33.60
2018-06-21T16:05:39.637Z,33.60
2018-06-21T16:08:07.174Z,34.10
2018-06-21T16:10:35.459Z,34.90
2018-06-21T16:13:03.761Z,34.60
2018-06-21T16:15:31.290Z,34.60
2018-06-21T16:17:59.610Z,33.80
2018-06-21T16:20:27.885Z,34.10
2018-06-21T16:22:56.213Z,35.10
2018-06-21T16:25:24.499Z,34.80
2018-06-21T16:27:52.070Z,34.80
2018-06-21T16:30:20.349Z,34.80
2018-06-21T16:32:47.898Z,34.70
2018-06-21T16:35:16.182Z,32.80
2018-06-21T16:37:43.729Z,32.90
2018-06-21T16:40:12.022Z,32.90
2018-06-21T16:42:40.397Z,32.90
2018-06-21T16:45:08.682Z,33.10
2018-06-21T16:47:36.210Z,33.10
2018-06-21T16:50:04.514Z,33.50
2018-06-21T16:52:32.804Z,33.90
2018-06-21T16:55:01.118Z,34.80
2018-06-21T16:57:28.646Z,34.70
2018-06-21T16:59:56.953Z,34.40
2018-06-21T17:02:25.257Z,35.60
2018-06-21T17:04:53.563Z,35.60
2018-06-21T17:07:21.858Z,35.40
2018-06-21T17:09:49.404Z,35.30
2018-06-21T17:12:17.703Z,32.50
2018-06-21T17:14:46.006Z,31.40
2018-06-21T17:17:14.301Z,31.00
2018-06-21T17:19:41.841Z,31.00
2018-06-21T17:22:10.131Z,33.80
2018-06-21T17:24:38.437Z,34.90
2018-06-21T17:27:06.719Z,36.20
2018-06-21T17:29:35.026Z,36.80
2018-06-21T17:32:03.312Z,36.60
2018-06-21T17:34:31.627Z,36.70
2018-06-21T17:36:59.934Z,37.50
2018-06-21T17:39:27.542Z,37.40
2018-06-21T17:41:55.863Z,37.90
2018-06-21T17:44:24.153Z,39.00
2018-06-21T17:46:51.708Z,38.90
2018-06-21T17:49:20.001Z,39.90
2018-06-21T17:51:48.336Z,40.30
2018-06-21T17:54:15.858Z,40.30
2018-06-21T17:56:44.147Z,40.10
2018-06-21T17:59:11.695Z,40.10
2018-06-21T18:01:39.982Z,39.20
2018-06-21T18:04:08.298Z,38.00
2018-06-21T18:06:36.580Z,38.50
2018-06-21T18:09:04.891Z,39.10
2018-06-21T18:11:33.172Z,39.60
2018-06-21T18:14:01.488Z,40.20
2018-06-21T18:16:29.015Z,40.30
2018-06-21T18:18:57.331Z,39.00
2018-06-21T18:21:25.618Z,38.40
2018-06-21T18:23:53.936Z,38.10
2018-06-21T18:26:22.239Z,38.70
2018-06-21T18:28:50.564Z,38.60
2018-06-21T18:31:18.851Z,37.90
2018-06-21T18:33:46.398Z,37.90
2018-06-21T18:36:14.682Z,35.90
2018-06-21T18:38:43.004Z,36.60
2018-06-21T18:41:11.293Z,37.80
2018-06-21T18:43:38.847Z,37.70
2018-06-21T18:46:07.133Z,39.80
2018-06-21T18:48:35.450Z,40.90
2018-06-21T18:51:03.733Z,41.80
2018-06-21T18:53:32.067Z,42.60
2018-06-21T18:56:00.351Z,43.90
2018-06-21T18:58:27.869Z,44.00
2018-06-21T19:00:56.182Z,44.70
2018-06-21T19:03:24.470Z,45.20
2018-06-21T19:05:52.783Z,46.10
2018-06-21T19:08:21.070Z,46.30
2018-06-21T19:11:05.191Z,46.50
2018-06-21T19:13:33.490Z,46.50
2018-06-21T19:16:01.806Z,47.00
2018-06-21T19:18:30.102Z,47.30
2018-06-21T19:20:58.422Z,48.00
2018-06-21T19:23:26.721Z,48.30
2018-06-21T19:25:55.036Z,48.70
2018-06-21T19:28:23.321Z,48.70
2018-06-21T19:30:51.645Z,48.90
2018-06-21T19:33:19.942Z,49.30
2018-06-21T19:35:48.258Z,49.80
2018-06-21T19:38:15.778Z,49.80
2018-06-21T19:40:44.094Z,50.80
2018-06-21T19:43:11.688Z,50.70
2018-06-21T19:45:39.960Z,51.40
2018-06-21T19:48:07.478Z,51.40
2018-06-21T19:50:35.800Z,51.90
2018-06-21T19:53:03.332Z,51.90
2018-06-21T19:55:31.651Z,52.60
2018-06-21T19:57:59.938Z,52.90
2018-06-21T20:00:28.297Z,53.00
2018-06-21T20:02:55.798Z,53.00
2018-06-21T20:05:23.350Z,53.60
2018-06-21T20:07:51.650Z,54.20
2018-06-21T20:10:19.966Z,54.60
2018-06-21T20:12:47.570Z,54.60
2018-06-21T20:15:15.845Z,55.30
2018-06-21T20:17:44.146Z,55.30
2018-06-21T20:20:12.462Z,55.50
2018-06-21T20:22:39.981Z,55.40
2018-06-21T20:25:07.534Z,55.40
2018-06-21T20:27:35.074Z,55.30
2018-06-21T20:30:03.406Z,55.30
2018-06-21T20:32:31.695Z,55.20
2018-06-21T20:35:00.025Z,55.70
2018-06-21T20:37:28.331Z,55.80
2018-06-21T20:39:55.896Z,55.80
2018-06-21T20:42:24.189Z,55.80
2018-06-21T20:44:52.479Z,56.50
2018-06-21T20:47:20.022Z,55.90
2018-06-21T20:49:48.305Z,56.40
2018-06-21T20:52:16.626Z,56.20
2018-06-21T20:54:44.146Z,56.30
2018-06-21T20:57:11.714Z,56.50
2018-06-21T20:59:40.019Z,56.60
2018-06-21T21:02:08.342Z,56.20
2018-06-21T21:04:35.866Z,56.20
2018-06-21T21:07:03.426Z,56.10
2018-06-21T21:09:31.719Z,56.40
2018-06-21T21:12:00.039Z,57.00
2018-06-21T21:14:27.576Z,57.60
2018-06-21T21:16:55.906Z,56.20
2018-06-21T21:19:24.215Z,56.50
2018-06-21T21:21:52.533Z,56.60
2018-06-21T21:24:20.814Z,56.40
2018-06-21T21:26:48.370Z,56.30
2018-06-21T21:29:16.672Z,56.70
2018-06-21T21:31:44.987Z,56.90
2018-06-21T21:34:13.292Z,56.80
2018-06-21T21:36:41.677Z,57.00
2018-06-21T21:39:09.175Z,57.00
2018-06-21T21:41:37.496Z,57.40
2018-06-21T21:44:05.023Z,57.40
2018-06-21T21:46:33.353Z,57.90
2018-06-21T21:49:00.877Z,57.80
2018-06-21T21:51:29.198Z,58.60
2018-06-21T21:53:56.720Z,58.60
2018-06-21T21:56:25.042Z,59.00
2018-06-21T21:58:52.569Z,59.00
2018-06-21T22:01:20.891Z,59.50
2018-06-21T22:03:49.191Z,59.90
2018-06-21T22:06:17.514Z,60.40
2018-06-21T22:08:45.862Z,60.30
2018-06-21T22:11:14.199Z,60.50
2018-06-21T22:13:42.494Z,60.60
2018-06-21T22:16:10.818Z,60.30
2018-06-21T22:18:38.342Z,60.30
2018-06-21T22:21:06.811Z,60.60
2018-06-21T22:23:34.418Z,60.70
2018-06-21T22:26:02.805Z,60.50
2018-06-21T22:28:30.376Z,60.50
2018-06-21T22:30:58.753Z,60.80
2018-06-21T22:33:26.279Z,60.80
2018-06-21T22:35:54.570Z,61.40
2018-06-21T22:38:22.894Z,61.20
2018-06-21T22:40:51.190Z,61.30
2018-06-21T22:43:18.750Z,61.30
2018-06-21T22:45:46.274Z,61.40
2018-06-21T22:48:14.598Z,62.00
2018-06-21T22:50:42.882Z,62.30
2018-06-21T22:53:11.198Z,62.30
2018-06-21T22:55:38.731Z,62.30
2018-06-21T22:58:06.346Z,62.00
2018-06-21T23:00:34.602Z,62.30
2018-06-21T23:03:02.160Z,62.30
2018-06-21T23:05:29.708Z,62.60
2018-06-21T23:07:58.044Z,63.60
2018-06-21T23:10:26.346Z,63.80
2018-06-21T23:12:53.898Z,63.80
2018-06-21T23:15:22.192Z,64.40
2018-06-21T23:17:50.510Z,64.50
2018-06-21T23:20:18.802Z,64.50
2018-06-21T23:22:47.124Z,65.10
2018-06-21T23:25:14.651Z,65.10
2018-06-21T23:27:42.969Z,65.40
2018-06-21T23:30:11.258Z,65.70
2018-06-21T23:32:38.808Z,65.70
2018-06-21T23:35:07.098Z,65.80
2018-06-21T23:37:35.420Z,66.40
2018-06-21T23:40:03.719Z,66.70
2018-06-21T23:42:31.278Z,66.60
2018-06-21T23:44:59.566Z,67.90
2018-06-21T23:47:27.132Z,68.60
2018-06-21T23:49:54.662Z,68.30
2018-06-21T23:52:22.979Z,68.30
2018-06-21T23:54:51.265Z,68.60
2018-06-21T23:57:18.826Z,68.50
2018-06-21T23:59:47.114Z,68.90
